Time;durP1;ratioP1;P1;durP2;ratioP2;P2;SDS_P1;SDS_P2;PMS_P1;PMS_P2;Temp;Humidity;BMP_temperature;BMP_pressure;BME280_temperature;BME280_humidity;BME280_pressure;Samples;Min_cycle;Max_cycle;Signal;HPM_P1;HPM_P2
2021/04/16 00:01:26;;;;;;;9.65;5.18;;;4.20;57.10;;;;;;6232947;23;20222;-63
2021/04/16 00:03:51;;;;;;;7.25;4.72;;;4.20;56.70;;;;;;6208389;23;20016;-64
2021/04/16 00:06:17;;;;;;;7.57;5.30;;;4.10;56.90;;;;;;6237779;23;20180;-63
2021/04/16 00:08:42;;;;;;;7.65;5.45;;;3.80;56.20;;;;;;6227448;23;20004;-63
2021/04/16 00:11:10;;;;;;;8.18;5.50;;;3.70;57.50;;;;;;6229374;23;20040;-64
2021/04/16 00:13:36;;;;;;;6.68;5.18;;;3.40;58.20;;;;;;6231722;23;20055;-64
2021/04/16 00:16:02;;;;;;;9.07;4.95;;;3.30;59.20;;;;;;6233463;23;19997;-63
2021/04/16 00:18:28;;;;;;;7.40;5.00;;;3.50;58.00;;;;;;6211166;23;20000;-64
2021/04/16 00:20:55;;;;;;;7.03;5.63;;;3.40;58.50;;;;;;6174858;23;20004;-64
2021/04/16 00:23:20;;;;;;;8.07;5.30;;;3.40;58.90;;;;;;6225759;23;20299;-64
2021/04/16 00:25:46;;;;;;;8.88;5.30;;;3.60;58.40;;;;;;6230813;23;19997;-64
2021/04/16 00:28:12;;;;;;;9.68;5.53;;;3.20;58.70;;;;;;6181830;23;20052;-64
2021/04/16 00:30:42;;;;;;;7.80;5.82;;;3.00;60.10;;;;;;6237496;23;20043;-64
2021/04/16 00:33:08;;;;;;;7.93;4.82;;;3.00;60.10;;;;;;6200860;23;20227;-64
2021/04/16 00:35:35;;;;;;;7.45;5.75;;;3.00;59.20;;;;;;6201150;23;20012;-64
2021/04/16 00:38:00;;;;;;;8.23;5.53;;;2.90;60.10;;;;;;6229127;23;20008;-64
2021/04/16 00:40:29;;;;;;;10.48;5.43;;;2.70;60.60;;;;;;6205494;23;20141;-64
2021/04/16 00:42:56;;;;;;;8.82;5.30;;;2.70;59.60;;;;;;6234133;23;20279;-64
2021/04/16 00:45:22;;;;;;;7.03;5.10;;;2.40;60.60;;;;;;6237687;23;20287;-64
2021/04/16 00:47:48;;;;;;;7.97;5.70;;;2.50;61.00;;;;;;6200373;23;20292;-63
2021/04/16 00:50:18;;;;;;;9.25;5.65;;;2.60;61.10;;;;;;6222298;23;20069;-64
2021/04/16 00:52:43;;;;;;;7.53;5.50;;;2.50;62.00;;;;;;6179645;23;20059;-63
2021/04/16 00:55:09;;;;;;;9.35;5.82;;;2.50;61.90;;;;;;6156530;23;20067;-63
2021/04/16 00:57:35;;;;;;;8.20;5.97;;;2.40;62.10;;;;;;6201228;23;20008;-64
2021/04/16 01:00:01;;;;;;;8.27;5.80;;;2.30;62.80;;;;;;6225193;23;20199;-64
2021/04/16 01:02:27;;;;;;;8.23;5.68;;;2.30;62.90;;;;;;6201153;23;20070;-64
2021/04/16 01:04:54;;;;;;;9.40;5.65;;;2.40;63.80;;;;;;6125601;23;20231;-63
2021/04/16 01:07:20;;;;;;;8.32;5.90;;;2.50;62.60;;;;;;6232098;23;20007;-63
2021/04/16 01:09:47;;;;;;;10.05;5.80;;;2.40;63.30;;;;;;6183557;23;20008;-64
2021/04/16 01:12:13;;;;;;;7.90;5.55;;;2.30;63.50;;;;;;6210672;23;19993;-64
2021/04/16 01:14:39;;;;;;;7.70;5.65;;;2.20;64.60;;;;;;6227082;23;20009;-63
2021/04/16 01:17:09;;;;;;;9.95;6.10;;;2.30;63.80;;;;;;6228938;23;20009;-64
2021/04/16 01:19:51;;;;;;;7.43;5.68;;;2.40;63.60;;;;;;6205066;23;20292;-64
2021/04/16 01:22:21;;;;;;;8.27;5.78;;;2.60;63.10;;;;;;6231739;23;20063;-64
2021/04/16 01:24:47;;;;;;;8.75;5.75;;;2.60;63.80;;;;;;6209175;23;20095;-64
2021/04/16 01:27:12;;;;;;;7.55;5.40;;;2.40;64.30;;;;;;6185617;23;20304;-64
2021/04/16 01:29:43;;;;;;;7.85;5.68;;;2.40;63.60;;;;;;6149462;23;20009;-64
2021/04/16 01:32:10;;;;;;;8.50;5.47;;;2.30;64.30;;;;;;6228582;23;20023;-64
2021/04/16 01:34:35;;;;;;;6.85;5.45;;;2.40;64.40;;;;;;6230717;23;20012;-64
2021/04/16 01:37:01;;;;;;;10.45;5.18;;;2.60;63.30;;;;;;6173488;23;20050;-64
2021/04/16 01:39:27;;;;;;;8.98;5.63;;;2.80;63.50;;;;;;6210334;23;20004;-64
2021/04/16 01:41:53;;;;;;;8.32;5.28;;;2.90;62.20;;;;;;6199563;23;20028;-64
2021/04/16 01:44:22;;;;;;;7.70;5.55;;;2.70;62.60;;;;;;6198196;23;20005;-64
2021/04/16 01:47:04;;;;;;;10.25;5.40;;;3.00;61.70;;;;;;6229038;23;20300;-64
2021/04/16 01:49:33;;;;;;;8.48;5.45;;;2.90;61.60;;;;;;6180896;23;20019;-64
2021/04/16 01:51:59;;;;;;;7.65;4.95;;;2.90;60.80;;;;;;6181832;23;20065;-64
2021/04/16 01:54:27;;;;;;;8.38;5.28;;;3.10;60.30;;;;;;6210573;23;19993;-64
2021/04/16 01:56:58;;;;;;;7.22;5.32;;;3.10;60.60;;;;;;6198849;23;20004;-64
2021/04/16 01:59:28;;;;;;;;;;;3.00;60.70;;;;;;6201697;23;20005;-64
2021/04/16 02:01:54;;;;;;;7.30;5.38;;;3.20;60.50;;;;;;6222968;23;19911;-64
2021/04/16 02:04:20;;;;;;;8.23;5.40;;;3.20;59.90;;;;;;6179966;23;20000;-64
2021/04/16 02:06:46;;;;;;;8.20;5.90;;;2.90;60.70;;;;;;6196935;23;20315;-64
2021/04/16 02:09:16;;;;;;;8.20;5.30;;;3.20;60.90;;;;;;6210821;23;20081;-64
2021/04/16 02:11:42;;;;;;;7.80;5.55;;;3.40;60.30;;;;;;6200169;23;20021;-63
2021/04/16 02:14:09;;;;;;;7.65;5.47;;;3.20;60.00;;;;;;6227820;23;20004;-64
2021/04/16 02:16:35;;;;;;;8.38;6.00;;;3.20;60.20;;;;;;6230645;23;20260;-63
2021/04/16 02:19:00;;;;;;;7.10;5.35;;;2.90;60.90;;;;;;6233243;23;20033;-63
2021/04/16 02:21:26;;;;;;;9.52;6.07;;;3.10;61.50;;;;;;6209991;23;20187;-64
2021/04/16 02:23:51;;;;;;;8.07;5.85;;;3.00;61.00;;;;;;6225312;23;20288;-64
2021/04/16 02:26:17;;;;;;;8.18;5.80;;;3.00;62.00;;;;;;6227688;23;20228;-64
2021/04/16 02:28:43;;;;;;;7.05;5.38;;;3.00;62.40;;;;;;6230466;23;20211;-63
2021/04/16 02:31:08;;;;;;;8.10;5.88;;;3.20;61.60;;;;;;6232328;23;20076;-63
2021/04/16 02:33:34;;;;;;;9.65;6.15;;;3.30;61.10;;;;;;6236733;23;20023;-64
2021/04/16 02:35:59;;;;;;;8.38;5.97;;;3.30;60.70;;;;;;6224956;23;20063;-63
2021/04/16 02:38:25;;;;;;;11.65;5.93;;;3.30;61.10;;;;;;6226889;23;20004;-63
2021/04/16 02:40:50;;;;;;;8.77;5.28;;;3.40;60.70;;;;;;6229151;23;20009;-64
2021/04/16 02:43:18;;;;;;;8.57;6.07;;;3.40;60.40;;;;;;6231664;23;20004;-64
2021/04/16 02:45:43;;;;;;;9.90;5.88;;;3.00;60.30;;;;;;6208152;23;20008;-63
2021/04/16 02:48:09;;;;;;;9.43;5.95;;;2.70;61.00;;;;;;6175057;23;19997;-63
2021/04/16 02:50:35;;;;;;;14.18;6.30;;;2.80;62.30;;;;;;6226716;23;20008;-64
2021/04/16 02:53:00;;;;;;;10.07;5.55;;;2.70;62.10;;;;;;6228247;23;20071;-64
2021/04/16 02:55:26;;;;;;;10.88;6.80;;;2.70;62.80;;;;;;6230793;23;20223;-63
2021/04/16 02:57:51;;;;;;;13.90;6.40;;;2.40;63.00;;;;;;6232634;23;20305;-64
2021/04/16 03:00:27;;;;;;;8.48;6.13;;;2.20;64.20;;;;;;6236577;23;20016;-64
2021/04/16 03:02:53;;;;;;;11.50;6.55;;;2.10;63.70;;;;;;6225314;23;20035;-63
2021/04/16 03:05:19;;;;;;;13.88;8.75;;;2.20;63.80;;;;;;6226931;23;20027;-63
2021/04/16 03:07:45;;;;;;;9.65;6.15;;;2.10;63.90;;;;;;6229408;23;20009;-64
2021/04/16 03:10:11;;;;;;;9.13;6.18;;;2.40;64.80;;;;;;6205357;23;20001;-64
2021/04/16 03:12:37;;;;;;;8.35;6.20;;;2.70;64.10;;;;;;6210375;23;20051;-63
2021/04/16 03:15:04;;;;;;;10.98;6.25;;;2.80;63.50;;;;;;6223940;23;20013;-64
2021/04/16 03:17:30;;;;;;;8.63;6.10;;;2.70;63.90;;;;;;6175770;23;20009;-64
2021/04/16 03:19:55;;;;;;;10.43;6.80;;;2.70;63.40;;;;;;6201777;23;20068;-64
2021/04/16 03:22:21;;;;;;;13.32;7.00;;;2.70;63.60;;;;;;6230916;23;20012;-64
2021/04/16 03:24:46;;;;;;;9.10;6.47;;;2.40;64.00;;;;;;6233289;23;20060;-64
2021/04/16 03:27:12;;;;;;;9.93;7.03;;;2.30;64.20;;;;;;6236353;23;20001;-64
2021/04/16 03:29:37;;;;;;;10.35;7.20;;;2.20;63.60;;;;;;6220731;23;20011;-64
2021/04/16 03:32:03;;;;;;;9.93;6.75;;;1.90;64.60;;;;;;6227999;23;20063;-63
2021/04/16 03:34:29;;;;;;;11.30;6.82;;;1.70;65.50;;;;;;6197771;23;20019;-64
2021/04/16 03:36:55;;;;;;;9.57;6.97;;;1.60;66.50;;;;;;6232680;23;20052;-64
2021/04/16 03:39:21;;;;;;;11.38;6.20;;;1.60;66.90;;;;;;6236649;23;20032;-63
2021/04/16 03:41:46;;;;;;;9.68;6.55;;;1.90;66.60;;;;;;6225671;23;20009;-64
2021/04/16 03:44:12;;;;;;;10.75;7.05;;;2.20;66.10;;;;;;6227297;23;20173;-63
2021/04/16 03:46:38;;;;;;;11.88;6.85;;;2.30;65.60;;;;;;6230137;23;20028;-64
2021/04/16 03:49:03;;;;;;;12.95;6.80;;;2.30;65.40;;;;;;6231929;23;20012;-64
2021/04/16 03:51:29;;;;;;;11.98;7.10;;;2.20;65.20;;;;;;6235714;23;20055;-64
2021/04/16 03:53:55;;;;;;;11.82;6.43;;;2.00;64.90;;;;;;6224931;23;20004;-63
2021/04/16 03:56:21;;;;;;;10.77;7.25;;;1.90;65.50;;;;;;6227216;23;20009;-64
2021/04/16 03:58:47;;;;;;;12.95;8.20;;;2.00;66.10;;;;;;6202548;23;20074;-63
2021/04/16 04:01:12;;;;;;;12.90;7.45;;;1.90;65.70;;;;;;6231373;23;20000;-63
2021/04/16 04:03:38;;;;;;;12.40;7.28;;;2.00;66.10;;;;;;6236142;23;19997;-63
2021/04/16 04:06:04;;;;;;;15.18;6.80;;;2.40;64.90;;;;;;6223635;23;20207;-64
2021/04/16 04:08:30;;;;;;;11.52;6.65;;;2.50;63.50;;;;;;6226006;23;20004;-63
2021/04/16 04:10:56;;;;;;;10.20;6.93;;;2.50;63.80;;;;;;6204008;23;20215;-64
2021/04/16 04:13:21;;;;;;;15.05;7.32;;;2.30;63.40;;;;;;6206254;23;19993;-63
2021/04/16 04:15:47;;;;;;;11.68;6.78;;;1.80;64.70;;;;;;6234773;23;19997;-63
2021/04/16 04:18:12;;;;;;;9.60;6.60;;;1.90;65.50;;;;;;6211099;23;20004;-64
2021/04/16 04:20:39;;;;;;;12.15;7.00;;;1.90;64.90;;;;;;6200990;23;20351;-63
2021/04/16 04:23:05;;;;;;;10.30;6.75;;;1.50;65.30;;;;;;6175423;23;20217;-64
2021/04/16 04:25:30;;;;;;;16.05;7.40;;;1.50;65.80;;;;;;6180758;23;20043;-63
2021/04/16 04:27:56;;;;;;;15.10;7.30;;;1.40;66.30;;;;;;6208205;23;20006;-64
2021/04/16 04:30:30;;;;;;;16.13;6.88;;;1.50;67.00;;;;;;6211379;23;20016;-63
2021/04/16 04:32:56;;;;;;;14.90;6.97;;;1.60;65.50;;;;;;6226497;23;20043;-63
2021/04/16 04:35:22;;;;;;;11.60;7.03;;;1.40;66.50;;;;;;6173725;23;20001;-63
2021/04/16 04:37:47;;;;;;;14.77;7.30;;;1.30;66.70;;;;;;6204257;23;19997;-64
2021/04/16 04:40:14;;;;;;;12.00;7.20;;;1.10;66.70;;;;;;6206924;23;19997;-64
2021/04/16 04:42:40;;;;;;;13.25;7.60;;;1.00;66.70;;;;;;6159755;23;20058;-64
2021/04/16 04:45:06;;;;;;;11.23;6.78;;;0.90;67.80;;;;;;6210894;23;20001;-64
2021/04/16 04:47:32;;;;;;;12.70;6.80;;;1.10;67.40;;;;;;6227458;23;20001;-64
2021/04/16 04:49:58;;;;;;;11.48;6.32;;;1.20;67.30;;;;;;6203409;23;20000;-63
2021/04/16 04:52:28;;;;;;;9.50;6.55;;;1.20;67.00;;;;;;6231474;23;20064;-64
2021/04/16 04:54:55;;;;;;;14.45;6.55;;;1.00;67.10;;;;;;6183001;23;20007;-64
2021/04/16 04:57:21;;;;;;;13.82;6.93;;;0.90;67.80;;;;;;6175994;23;20004;-64
2021/04/16 04:59:47;;;;;;;9.93;6.38;;;1.00;68.10;;;;;;6199147;23;20005;-64
2021/04/16 05:02:13;;;;;;;11.63;6.20;;;1.10;68.00;;;;;;6202005;23;20333;-64
2021/04/16 05:04:39;;;;;;;13.55;6.47;;;1.00;67.30;;;;;;6230721;23;20012;-63
2021/04/16 05:07:04;;;;;;;11.70;6.78;;;1.00;67.60;;;;;;6233197;23;20008;-64
2021/04/16 05:09:30;;;;;;;18.40;6.78;;;1.10;67.50;;;;;;6185781;23;20004;-64
2021/04/16 05:11:55;;;;;;;10.60;6.60;;;1.60;67.00;;;;;;6199217;23;20074;-66
2021/04/16 05:14:21;;;;;;;18.95;6.63;;;1.60;65.70;;;;;;6227509;23;20005;-64
2021/04/16 05:16:47;;;;;;;15.60;6.72;;;1.70;65.20;;;;;;6203944;23;20123;-69
2021/04/16 05:19:12;;;;;;;15.45;6.43;;;1.80;65.20;;;;;;6173262;23;20047;-63
2021/04/16 05:21:39;;;;;;;13.68;6.35;;;1.90;65.30;;;;;;6237003;23;20007;-65
2021/04/16 05:24:06;;;;;;;12.57;6.30;;;2.20;64.70;;;;;;6198697;23;20005;-65
2021/04/16 05:26:32;;;;;;;16.98;6.70;;;2.40;63.90;;;;;;6175763;23;20012;-65
2021/04/16 05:28:57;;;;;;;11.52;6.50;;;2.50;62.80;;;;;;6229366;23;20108;-65
2021/04/16 05:31:23;;;;;;;15.63;6.57;;;2.40;63.20;;;;;;6229924;23;20001;-64
2021/04/16 05:33:48;;;;;;;15.32;7.60;;;2.30;62.90;;;;;;6233971;23;20229;-65
2021/04/16 05:36:14;;;;;;;15.27;7.90;;;2.00;63.70;;;;;;6237442;23;20272;-65
2021/04/16 05:38:39;;;;;;;16.35;7.38;;;2.10;65.30;;;;;;6226765;23;20019;-64
2021/04/16 05:41:05;;;;;;;10.30;6.85;;;2.20;64.10;;;;;;6202460;23;20004;-65
2021/04/16 05:43:30;;;;;;;21.15;7.15;;;2.30;63.90;;;;;;6230266;23;20001;-64
2021/04/16 05:45:56;;;;;;;17.58;7.22;;;2.50;63.90;;;;;;6233185;23;20020;-64
2021/04/16 05:48:21;;;;;;;11.63;7.18;;;2.60;64.10;;;;;;6236393;23;20236;-64
2021/04/16 05:50:47;;;;;;;16.13;7.45;;;2.80;63.30;;;;;;6225807;23;20203;-65
2021/04/16 05:53:13;;;;;;;16.73;7.00;;;2.90;62.50;;;;;;6227853;23;20029;-64
2021/04/16 05:55:40;;;;;;;16.88;7.32;;;3.00;62.80;;;;;;6204205;23;20199;-64
2021/04/16 05:58:05;;;;;;;11.10;7.18;;;3.10;62.90;;;;;;6232580;23;20268;-64
2021/04/16 06:00:31;;;;;;;15.18;7.78;;;3.20;62.30;;;;;;6209980;23;20028;-64
2021/04/16 06:02:57;;;;;;;15.38;7.75;;;3.20;62.30;;;;;;6197997;23;20017;-64
2021/04/16 06:05:22;;;;;;;12.77;7.63;;;3.20;62.20;;;;;;6227053;23;20024;-64
2021/04/16 06:07:49;;;;;;;12.50;7.53;;;3.20;62.40;;;;;;6173917;23;20060;-64
2021/04/16 06:10:15;;;;;;;12.27;7.82;;;3.10;62.90;;;;;;6205419;23;20052;-65
2021/04/16 06:12:41;;;;;;;14.20;8.02;;;3.10;63.40;;;;;;6183494;23;20027;-64
2021/04/16 06:15:09;;;;;;;15.57;7.63;;;3.40;62.80;;;;;;6185034;23;20227;-64
2021/04/16 06:17:34;;;;;;;13.30;7.65;;;3.40;62.90;;;;;;6173027;23;20069;-64
2021/04/16 06:20:00;;;;;;;14.38;7.80;;;3.50;62.80;;;;;;6228033;23;20369;-64
2021/04/16 06:22:26;;;;;;;14.07;8.07;;;3.30;62.80;;;;;;6204310;23;20008;-64
2021/04/16 06:24:51;;;;;;;15.00;7.72;;;3.30;63.10;;;;;;6148192;23;20055;-64
2021/04/16 06:27:18;;;;;;;11.98;8.13;;;3.60;63.40;;;;;;6209804;23;20020;-64
2021/04/16 06:29:43;;;;;;;12.93;8.70;;;3.90;63.20;;;;;;6149557;23;20071;-64
2021/04/16 06:32:09;;;;;;;15.50;9.45;;;4.00;63.10;;;;;;6197759;23;20008;-64
2021/04/16 06:34:34;;;;;;;14.93;8.77;;;4.00;63.40;;;;;;6147886;23;20206;-64
2021/04/16 06:37:00;;;;;;;13.25;9.32;;;4.00;63.30;;;;;;6197418;23;20011;-64
2021/04/16 06:39:26;;;;;;;15.77;8.60;;;4.30;63.60;;;;;;6210470;23;20332;-65
2021/04/16 06:41:51;;;;;;;19.02;9.98;;;4.30;63.20;;;;;;6224065;23;20016;-64
2021/04/16 06:44:27;;;;;;;11.75;8.68;;;4.30;62.70;;;;;;6176072;23;20018;-64
2021/04/16 06:46:56;;;;;;;11.23;8.50;;;4.50;63.00;;;;;;6203646;23;20295;-64
2021/04/16 06:49:26;;;;;;;14.07;8.80;;;4.80;61.40;;;;;;6205445;23;20024;-64
2021/04/16 06:52:05;;;;;;;10.30;7.85;;;4.90;61.20;;;;;;6181144;23;20012;-64
2021/04/16 06:54:49;;;;;;;16.35;8.98;;;4.70;60.20;;;;;;6236376;23;20000;-64
2021/04/16 06:57:28;;;;;;;14.63;8.68;;;5.00;61.50;;;;;;6198331;23;20013;-64
2021/04/16 07:00:22;;;;;;;13.52;8.50;;;5.30;60.60;;;;;;6198949;23;20036;-64
2021/04/16 07:02:53;;;;;;;12.18;9.32;;;5.50;60.00;;;;;;6212755;23;20012;-64
2021/04/16 07:05:44;;;;;;;12.88;8.43;;;5.80;59.10;;;;;;6175181;23;20375;-64
2021/04/16 07:08:35;;;;;;;17.17;7.93;;;6.00;58.00;;;;;;6201658;23;20009;-65
2021/04/16 07:11:01;;;;;;;8.45;7.55;;;6.50;57.30;;;;;;6201740;23;20009;-65
2021/04/16 07:13:38;;;;;;;13.45;8.90;;;8.40;53.00;;;;;;6154230;23;20028;-64
2021/04/16 07:16:04;;;;;;;11.10;8.70;;;14.30;37.90;;;;;;6206616;23;20071;-64
2021/04/16 07:18:36;;;;;;;11.25;7.40;;;19.00;28.70;;;;;;6209770;23;20024;-65
2021/04/16 07:21:02;;;;;;;8.93;6.28;;;18.80;27.50;;;;;;6173736;23;20008;-65
2021/04/16 07:23:27;;;;;;;10.13;7.15;;;18.50;28.00;;;;;;6175676;23;20020;-64
2021/04/16 07:26:19;;;;;;;8.23;7.35;;;19.40;26.00;;;;;;6202415;23;20056;-65
2021/04/16 07:28:47;;;;;;;8.98;7.57;;;23.30;21.80;;;;;;6203097;23;20009;-65
2021/04/16 07:31:33;;;;;;;8.63;7.43;;;27.40;17.10;;;;;;6205114;23;20005;-65
2021/04/16 07:33:59;;;;;;;8.30;7.50;;;30.70;15.20;;;;;;6232918;23;20005;-64
2021/04/16 07:36:35;;;;;;;11.63;6.97;;;33.50;12.40;;;;;;6184778;23;19993;-64
2021/04/16 07:39:08;;;;;;;9.27;6.70;;;35.10;11.40;;;;;;6198184;23;20008;-64
2021/04/16 07:41:59;;;;;;;8.15;5.88;;;36.40;10.50;;;;;;6200630;23;20009;-64
2021/04/16 07:44:29;;;;;;;9.32;5.72;;;37.70;10.10;;;;;;6205895;23;20165;-64
2021/04/16 07:46:59;;;;;;;10.32;5.70;;;38.30;9.40;;;;;;6205136;23;20008;-64
2021/04/16 07:49:29;;;;;;;12.45;5.28;;;39.50;8.80;;;;;;6232531;23;20001;-65
2021/04/16 07:51:57;;;;;;;10.07;5.07;;;40.30;7.90;;;;;;6208385;23;20067;-64
2021/04/16 07:54:30;;;;;;;6.93;5.20;;;40.10;8.00;;;;;;6186426;23;20195;-64
2021/04/16 07:57:25;;;;;;;8.43;5.25;;;31.60;12.40;;;;;;6175443;23;20309;-65
2021/04/16 08:00:01;;;;;;;7.25;5.07;;;24.00;18.20;;;;;;6206635;23;20004;-64
2021/04/16 08:02:39;;;;;;;6.28;4.55;;;18.90;24.80;;;;;;6177064;23;20024;-64
2021/04/16 08:05:17;;;;;;;6.00;4.75;;;16.60;27.80;;;;;;6204376;23;20015;-64
2021/04/16 08:07:42;;;;;;;7.88;4.82;;;15.30;29.20;;;;;;6230930;23;20012;-64
2021/04/16 08:10:14;;;;;;;5.05;4.20;;;14.70;31.40;;;;;;6233536;23;20192;-64
2021/04/16 08:12:40;;;;;;;5.97;5.38;;;13.80;32.40;;;;;;6184280;23;20071;-66
2021/04/16 08:15:21;;;;;;;5.88;5.07;;;13.00;33.60;;;;;;6200870;23;20001;-64
2021/04/16 08:17:47;;;;;;;7.88;5.13;;;12.40;35.00;;;;;;6227257;23;20047;-64
2021/04/16 08:20:26;;;;;;;6.80;4.75;;;11.60;35.60;;;;;;6202647;23;20227;-64
2021/04/16 08:22:52;;;;;;;7.45;5.20;;;11.60;36.60;;;;;;6181039;23;20009;-64
2021/04/16 08:25:19;;;;;;;9.50;6.15;;;11.50;36.30;;;;;;6181512;23;20001;-64
2021/04/16 08:28:00;;;;;;;8.77;5.30;;;11.60;37.50;;;;;;6183262;23;20004;-63
2021/04/16 08:30:46;;;;;;;8.50;5.13;;;11.50;36.30;;;;;;6163341;23;20020;-64
2021/04/16 08:33:18;;;;;;;7.25;5.15;;;11.60;37.90;;;;;;6203739;23;20004;-63
2021/04/16 08:35:58;;;;;;;9.60;6.00;;;10.90;36.80;;;;;;6226734;23;20008;-64
2021/04/16 08:38:26;;;;;;;9.38;6.07;;;10.10;38.30;;;;;;6201746;23;20242;-64
2021/04/16 08:40:57;;;;;;;6.30;5.50;;;9.70;38.80;;;;;;6179470;23;20000;-64
2021/04/16 08:43:50;;;;;;;8.20;5.90;;;9.70;39.60;;;;;;6205739;23;19996;-64
2021/04/16 08:46:48;;;;;;;8.63;6.25;;;10.10;39.60;;;;;;6232966;23;20005;-64
2021/04/16 08:49:24;;;;;;;10.52;6.60;;;10.10;40.20;;;;;;6173250;23;20003;-63
2021/04/16 08:51:54;;;;;;;7.75;6.28;;;10.10;39.50;;;;;;6233928;23;20079;-63
2021/04/16 08:54:31;;;;;;;8.13;6.78;;;9.90;39.00;;;;;;6211283;23;20028;-63
2021/04/16 08:57:01;;;;;;;10.95;6.53;;;9.40;39.20;;;;;;6176141;23;20009;-63
2021/04/16 08:59:30;;;;;;;9.05;5.80;;;8.70;41.40;;;;;;6227531;23;20071;-63
2021/04/16 09:02:17;;;;;;;9.18;6.18;;;8.70;42.70;;;;;;6178950;23;20028;-64
2021/04/16 09:04:54;;;;;;;9.77;5.80;;;8.90;43.60;;;;;;6224612;23;20107;-64
2021/04/16 09:07:35;;;;;;;9.48;5.65;;;9.70;42.30;;;;;;6183049;23;20327;-64
2021/04/16 09:10:03;;;;;;;7.90;5.30;;;9.80;41.60;;;;;;6181975;23;20004;-64
2021/04/16 09:12:38;;;;;;;9.10;5.32;;;10.20;40.50;;;;;;6210799;23;19992;-64
2021/04/16 09:15:05;;;;;;;8.38;5.72;;;10.30;40.80;;;;;;6224971;23;20001;-65
2021/04/16 09:18:03;;;;;;;7.40;5.65;;;10.30;40.40;;;;;;6224819;23;20005;-64
2021/04/16 09:20:34;;;;;;;6.53;5.18;;;10.10;40.50;;;;;;6177573;23;20001;-68
2021/04/16 09:23:00;;;;;;;;;;;10.10;41.40;;;;;;6229554;23;20052;-66
2021/04/16 09:25:48;;;;;;;7.95;5.60;;;10.00;39.90;;;;;;6223533;23;19907;-66
2021/04/16 09:28:22;;;;;;;10.02;5.18;;;9.60;39.90;;;;;;6231790;23;20001;-66
2021/04/16 09:31:03;;;;;;;6.68;5.30;;;9.20;40.30;;;;;;6234650;23;19996;-66
2021/04/16 09:33:38;;;;;;;7.28;5.55;;;8.80;40.70;;;;;;6151115;23;20299;-66
2021/04/16 09:36:05;;;;;;;10.35;5.25;;;8.50;40.60;;;;;;6224686;23;20028;-66
2021/04/16 09:38:36;;;;;;;6.40;5.05;;;8.40;41.00;;;;;;6200662;23;20256;-66
2021/04/16 09:41:34;;;;;;;10.05;5.32;;;8.70;42.30;;;;;;6178814;23;20009;-66
2021/04/16 09:44:20;;;;;;;8.52;5.78;;;8.70;41.60;;;;;;6210946;23;20323;-66
2021/04/16 09:46:47;;;;;;;7.35;5.78;;;9.10;42.20;;;;;;6207839;23;20043;-66
2021/04/16 09:49:25;;;;;;;10.40;5.85;;;9.50;40.60;;;;;;6181259;23;20008;-66
2021/04/16 09:51:55;;;;;;;8.95;5.88;;;9.10;40.60;;;;;;6233431;23;20153;-66
2021/04/16 09:54:20;;;;;;;9.15;5.88;;;9.00;41.00;;;;;;6186103;23;20051;-66
2021/04/16 09:57:01;;;;;;;11.13;5.97;;;9.40;41.70;;;;;;6226027;23;20028;-66
2021/04/16 09:59:41;;;;;;;7.60;5.68;;;9.80;41.90;;;;;;6198294;23;20051;-66
2021/04/16 10:02:18;;;;;;;7.97;5.75;;;10.20;41.20;;;;;;6180113;23;20059;-65
2021/04/16 10:04:53;;;;;;;6.75;5.18;;;10.30;40.20;;;;;;6204025;23;20042;-66
2021/04/16 10:07:24;;;;;;;11.50;6.40;;;10.20;40.70;;;;;;6205177;23;20169;-68
2021/04/16 10:09:49;;;;;;;8.40;5.95;;;9.70;38.20;;;;;;6207000;23;19996;-65
2021/04/16 10:12:34;;;;;;;7.45;5.72;;;9.20;41.10;;;;;;6237035;23;20287;-67
2021/04/16 10:15:14;;;;;;;8.07;6.20;;;9.50;40.10;;;;;;6199231;23;20028;-67
2021/04/16 10:17:52;;;;;;;9.10;5.70;;;9.70;41.80;;;;;;6175366;23;20036;-67
2021/04/16 10:20:17;;;;;;;8.82;5.82;;;10.10;40.50;;;;;;6151005;23;20004;-66
2021/04/16 10:22:44;;;;;;;7.75;6.22;;;10.10;40.70;;;;;;6178576;23;20115;-67
2021/04/16 10:29:16;;;;;;;12.48;6.68;;;9.90;41.20;;;;;;6209641;23;20047;-67
2021/04/16 10:32:15;;;;;;;10.85;6.38;;;9.90;40.90;;;;;;6223439;23;20021;-66
2021/04/16 10:49:33;;;;;;;10.82;5.90;;;11.40;38.70;;;;;;6176801;23;20011;-66
2021/04/16 11:01:08;;;;;;;9.40;5.53;;;12.00;38.20;;;;;;6188549;23;20423;-68
2021/04/16 11:30:30;;;;;;;7.70;5.20;;;11.80;36.50;;;;;;6202639;23;20308;-62
2021/04/16 12:39:00;;;;;;;13.07;6.10;;;11.10;37.20;;;;;;6196368;23;20071;-69
2021/04/16 12:41:31;;;;;;;9.65;5.45;;;11.60;38.60;;;;;;6196203;23;20016;-70
2021/04/16 12:43:57;;;;;;;7.70;5.45;;;12.00;36.30;;;;;;6174628;23;20005;-70
2021/04/16 12:46:32;;;;;;;9.68;5.57;;;12.00;34.70;;;;;;6150848;23;20073;-69
2021/04/16 12:48:58;;;;;;;8.93;5.80;;;11.80;34.00;;;;;;6202212;23;20001;-69
2021/04/16 12:51:23;;;;;;;8.00;5.60;;;11.70;34.10;;;;;;6180342;23;20036;-71
2021/04/16 12:53:49;;;;;;;6.22;5.60;;;11.50;32.90;;;;;;6195986;23;20303;-70
2021/04/16 12:56:18;;;;;;;6.90;5.55;;;11.20;35.50;;;;;;6172082;23;20009;-70
2021/04/16 12:58:44;;;;;;;8.27;5.78;;;11.30;36.20;;;;;;6149755;23;20299;-69
2021/04/16 13:01:15;;;;;;;6.70;5.90;;;11.10;34.20;;;;;;6143500;23;20005;-72
2021/04/16 13:03:41;;;;;;;8.98;5.88;;;10.90;34.90;;;;;;6144631;23;20031;-72
2021/04/16 13:06:26;;;;;;;5.68;4.68;;;10.80;37.60;;;;;;6145998;23;20001;-72
2021/04/16 13:08:52;;;;;;;8.10;5.90;;;10.90;38.10;;;;;;6194434;23;20063;-72
2021/04/16 13:11:18;;;;;;;6.80;5.78;;;10.80;35.20;;;;;;6147400;23;20292;-73
2021/04/16 13:13:43;;;;;;;7.72;5.60;;;10.40;36.40;;;;;;6174182;23;20280;-72
2021/04/16 13:16:09;;;;;;;7.85;5.43;;;10.50;36.90;;;;;;6201478;23;19997;-72
2021/04/16 13:18:37;;;;;;;15.07;6.20;;;10.50;37.80;;;;;;6156202;23;20174;-72
2021/04/16 13:21:04;;;;;;;10.27;6.05;;;10.70;37.60;;;;;;6144481;23;20240;-72
2021/04/16 13:23:30;;;;;;;7.60;5.63;;;10.80;36.80;;;;;;6195639;23;20009;-74
2021/04/16 13:25:56;;;;;;;8.45;5.63;;;11.20;38.90;;;;;;6173230;23;20012;-72
2021/04/16 13:28:21;;;;;;;7.82;5.80;;;11.50;37.20;;;;;;6175528;23;20202;-71
2021/04/16 13:30:47;;;;;;;9.82;5.88;;;11.50;36.00;;;;;;6202092;23;19993;-73
2021/04/16 13:33:17;;;;;;;8.90;6.00;;;11.80;36.70;;;;;;6205579;23;20024;-71
2021/04/16 13:35:45;;;;;;;6.68;5.68;;;11.80;36.00;;;;;;6170672;23;20025;-70
2021/04/16 13:38:22;;;;;;;6.85;5.68;;;11.80;36.10;;;;;;6143693;23;20244;-71
2021/04/16 13:40:47;;;;;;;7.72;5.57;;;11.80;36.00;;;;;;6173503;23;20236;-71
2021/04/16 13:43:13;;;;;;;8.98;5.53;;;11.90;36.40;;;;;;6175414;23;20009;-72
2021/04/16 13:45:38;;;;;;;6.97;5.70;;;11.90;36.50;;;;;;6205338;23;20048;-71
2021/04/16 13:48:04;;;;;;;9.40;5.45;;;12.40;37.40;;;;;;6167902;23;20005;-71
2021/04/16 13:50:30;;;;;;;6.35;5.40;;;12.20;34.90;;;;;;6168152;23;20052;-71
2021/04/16 13:52:56;;;;;;;7.82;5.55;;;12.20;35.60;;;;;;6169959;23;20021;-71
2021/04/16 13:55:27;;;;;;;8.05;5.30;;;11.90;34.80;;;;;;6150004;23;20304;-72
2021/04/16 13:57:52;;;;;;;5.90;5.20;;;11.60;34.20;;;;;;6177439;23;20005;-71
2021/04/16 14:00:21;;;;;;;8.00;5.20;;;11.30;35.00;;;;;;6206298;23;19993;-72
2021/04/16 14:02:51;;;;;;;8.45;5.88;;;11.10;34.00;;;;;;6168035;23;20300;-69
2021/04/16 14:05:19;;;;;;;8.55;5.50;;;10.70;35.10;;;;;;6171764;23;20020;-72
2021/04/16 14:07:45;;;;;;;9.43;5.90;;;10.60;35.30;;;;;;6173672;23;20195;-72
2021/04/16 14:10:12;;;;;;;6.40;5.55;;;10.40;35.40;;;;;;6151574;23;20036;-72
2021/04/16 14:12:37;;;;;;;7.13;5.70;;;10.50;36.90;;;;;;6194666;23;20188;-73
2021/04/16 14:15:04;;;;;;;7.75;5.35;;;10.50;36.50;;;;;;6192821;23;20012;-72
2021/04/16 14:17:37;;;;;;;8.48;5.40;;;10.60;37.20;;;;;;6170435;23;20016;-72
2021/04/16 14:20:12;;;;;;;12.68;6.15;;;10.70;37.90;;;;;;6173071;23;20013;-72
2021/04/16 14:22:43;;;;;;;6.97;5.68;;;10.80;36.90;;;;;;6175282;23;20012;-69
2021/04/16 14:25:14;;;;;;;7.93;5.60;;;10.30;35.30;;;;;;6175897;23;20077;-69
2021/04/16 14:27:41;;;;;;;7.18;5.68;;;10.10;36.10;;;;;;6206093;23;20028;-70
2021/04/16 14:30:16;;;;;;;8.32;5.80;;;10.10;36.10;;;;;;6169434;23;20032;-68
2021/04/16 14:32:41;;;;;;;8.25;5.90;;;9.90;35.70;;;;;;6194397;23;20013;-69
2021/04/16 14:35:07;;;;;;;9.57;5.88;;;10.00;37.40;;;;;;6197272;23;20031;-67
2021/04/16 14:37:33;;;;;;;8.45;6.00;;;10.10;38.50;;;;;;6192785;23;20184;-68
2021/04/16 14:39:58;;;;;;;7.07;5.78;;;10.00;37.20;;;;;;6202397;23;20001;-67
2021/04/16 14:42:24;;;;;;;8.15;5.75;;;10.00;38.10;;;;;;6180196;23;20059;-67
2021/04/16 14:44:50;;;;;;;9.85;6.80;;;10.20;38.30;;;;;;6153920;23;20339;-67
2021/04/16 14:47:15;;;;;;;9.95;5.78;;;10.20;38.00;;;;;;6195772;23;20009;-67
2021/04/16 14:49:41;;;;;;;7.05;5.82;;;9.90;36.30;;;;;;6197744;23;20009;-66
2021/04/16 14:52:08;;;;;;;10.18;5.57;;;9.80;37.30;;;;;;6216725;23;20013;-66
2021/04/16 14:54:37;;;;;;;8.20;5.80;;;9.70;37.90;;;;;;6210273;23;20103;-66
2021/04/16 14:57:03;;;;;;;7.50;5.63;;;9.40;37.50;;;;;;6173375;23;20034;-65
2021/04/16 14:59:39;;;;;;;8.88;5.95;;;9.30;38.40;;;;;;6172928;23;20243;-65
2021/04/16 15:02:05;;;;;;;7.85;5.53;;;9.50;39.40;;;;;;6186286;23;20012;-65